createdAt,value
2022-10-17T00:00:15.375Z,96909.96
2022-10-17T00:03:03.408Z,96906.48
2022-10-17T00:05:31.282Z,96907.67
2022-10-17T00:07:59.354Z,96906.92
2022-10-17T00:10:27.321Z,96906.64
2022-10-17T00:12:55.293Z,96909.64
2022-10-17T00:15:23.302Z,96909.96
2022-10-17T00:17:51.362Z,96908.59
2022-10-17T00:20:19.410Z,96910.45
2022-10-17T00:22:47.381Z,96909.80
2022-10-17T00:25:15.555Z,96911.65
2022-10-17T00:27:43.534Z,96912.79
2022-10-17T00:30:13.138Z,96911.02
2022-10-17T00:32:41.211Z,96913.21
2022-10-17T00:35:09.694Z,96916.48
2022-10-17T00:37:37.868Z,96916.02
2022-10-17T00:40:06.978Z,96915.59
2022-10-17T00:42:35.347Z,96915.32
2022-10-17T00:45:10.997Z,96918.91
2022-10-17T00:47:39.721Z,96917.30
2022-10-17T00:50:07.959Z,96916.11
2022-10-17T00:52:36.505Z,96913.24
2022-10-17T00:55:09.669Z,96914.96
2022-10-17T00:57:39.251Z,96914.70
2022-10-17T01:00:09.411Z,96916.11
2022-10-17T01:02:37.954Z,96915.88
2022-10-17T01:05:06.723Z,96914.31
2022-10-17T01:07:37.366Z,96914.61
2022-10-17T01:10:06.987Z,96913.72
2022-10-17T01:12:38.235Z,96913.73
2022-10-17T01:15:12.251Z,96913.50
2022-10-17T01:17:52.639Z,96912.73
2022-10-17T01:20:26.653Z,96911.65
2022-10-17T01:23:00.665Z,96915.02
2022-10-17T01:25:46.116Z,96917.21
2022-10-17T01:28:20.264Z,96922.66
2022-10-17T01:30:51.725Z,96922.95
2022-10-17T01:33:46.176Z,96922.34
2022-10-17T01:36:40.690Z,96924.41
2022-10-17T01:39:20.125Z,96925.20
2022-10-17T01:41:54.156Z,96921.29
2022-10-17T01:44:42.378Z,96919.64
2022-10-17T01:47:13.633Z,96920.82
2022-10-17T01:49:44.353Z,96922.64
2022-10-17T01:52:19.388Z,96925.44
2022-10-17T01:55:06.419Z,96924.86
2022-10-17T01:57:37.272Z,96931.23
2022-10-17T02:00:08.970Z,96930.23
2022-10-17T02:02:43.632Z,96929.52
2022-10-17T02:05:12.511Z,96938.44
2022-10-17T02:07:42.032Z,96935.92
2022-10-17T02:10:13.485Z,96935.57
2022-10-17T02:12:54.562Z,96938.42
2022-10-17T02:15:40.545Z,96939.17
2022-10-17T02:18:08.630Z,96941.02
2022-10-17T02:20:39.777Z,96937.77
2022-10-17T02:23:31.021Z,96943.98
2022-10-17T02:26:19.646Z,96942.73
2022-10-17T02:28:52.676Z,96944.73
2022-10-17T02:31:23.064Z,96943.68
2022-10-17T02:34:03.118Z,96953.35
2022-10-17T02:36:35.596Z,96952.49
2022-10-17T02:39:04.493Z,96955.23
2022-10-17T02:41:34.267Z,96956.64
2022-10-17T02:44:05.382Z,96958.42
2022-10-17T02:46:34.444Z,96960.20
2022-10-17T02:49:21.577Z,96956.95
2022-10-17T02:51:57.542Z,96958.86
2022-10-17T02:54:33.582Z,96959.20
2022-10-17T02:57:07.085Z,96957.98
2022-10-17T02:59:36.379Z,96961.34
2022-10-17T03:02:05.483Z,96961.33
2022-10-17T03:04:34.211Z,96959.42
2022-10-17T03:07:02.162Z,96960.89
2022-10-17T03:09:30.192Z,96960.53
2022-10-17T03:11:58.165Z,96957.75
2022-10-17T03:14:26.874Z,96958.65
2022-10-17T03:16:54.878Z,96954.52
2022-10-17T03:19:23.540Z,96957.63
2022-10-17T03:21:52.118Z,96956.49
2022-10-17T03:24:20.100Z,96962.68
2022-10-17T03:26:48.172Z,96965.13
2022-10-17T03:29:16.337Z,96965.13
2022-10-17T03:31:44.515Z,96967.96
2022-10-17T03:34:12.694Z,96971.14
2022-10-17T03:36:40.670Z,96975.62
2022-10-17T03:39:08.832Z,96972.89
2022-10-17T03:41:36.752Z,96977.14
2022-10-17T03:44:04.788Z,96975.66
2022-10-17T03:46:32.794Z,96976.85
2022-10-17T03:49:01.340Z,96981.20
2022-10-17T03:51:29.596Z,96979.27
2022-10-17T03:54:02.352Z,96983.90
2022-10-17T03:56:30.675Z,96979.14
2022-10-17T03:59:02.642Z,96980.52
2022-10-17T04:01:31.631Z,96976.65
2022-10-17T04:04:00.346Z,96978.54
2022-10-17T04:06:31.876Z,96976.28
2022-10-17T04:09:01.182Z,96974.86
2022-10-17T04:11:37.343Z,96979.02
2022-10-17T04:14:05.803Z,96978.64
2022-10-17T04:16:34.126Z,96974.16
2022-10-17T04:19:05.049Z,96973.54
2022-10-17T04:21:38.034Z,96973.27
2022-10-17T04:24:10.336Z,96975.63
2022-10-17T04:26:44.326Z,96977.52
2022-10-17T04:29:12.800Z,96975.89
2022-10-17T04:31:41.636Z,96975.73
2022-10-17T04:34:22.467Z,96976.80
2022-10-17T04:36:52.078Z,96975.61
2022-10-17T04:39:21.072Z,96977.11
2022-10-17T04:41:49.456Z,96981.52
2022-10-17T04:44:17.525Z,96981.77
2022-10-17T04:47:05.899Z,96977.42
2022-10-17T04:49:34.188Z,96978.52
2022-10-17T04:52:08.787Z,96979.23
2022-10-17T04:54:43.819Z,96978.58
2022-10-17T04:57:14.664Z,96983.40
2022-10-17T04:59:44.955Z,96985.80
2022-10-17T05:02:20.047Z,96982.06
2022-10-17T05:04:48.321Z,96986.48
2022-10-17T05:07:16.675Z,96987.80
2022-10-17T05:09:49.694Z,96994.38
2022-10-17T05:12:17.805Z,96996.49
2022-10-17T05:14:46.118Z,96999.10
2022-10-17T05:17:14.951Z,97005.09
2022-10-17T05:19:42.881Z,97006.54
2022-10-17T05:22:11.058Z,97007.67
2022-10-17T05:24:40.249Z,97010.27
2022-10-17T05:27:08.637Z,97009.61
2022-10-17T05:29:36.813Z,97011.23
2022-10-17T05:32:10.830Z,97012.04
2022-10-17T05:34:39.221Z,97014.52
2022-10-17T05:37:07.222Z,97012.30
2022-10-17T05:39:35.455Z,97018.08
2022-10-17T05:42:04.519Z,97020.95
2022-10-17T05:44:32.472Z,97029.13
2022-10-17T05:47:00.904Z,97024.27
2022-10-17T05:49:43.563Z,97031.30
2022-10-17T05:52:14.570Z,97035.64
2022-10-17T05:54:54.627Z,97037.70
2022-10-17T05:57:25.352Z,97039.76
2022-10-17T05:59:53.594Z,97041.60
2022-10-17T06:02:22.503Z,97044.66
2022-10-17T06:04:51.062Z,97049.28
2022-10-17T06:07:21.444Z,97051.27
2022-10-17T06:09:49.963Z,97053.86
2022-10-17T06:12:18.095Z,97055.48
2022-10-17T06:14:46.574Z,97058.39
2022-10-17T06:17:16.459Z,97059.69
2022-10-17T06:19:45.809Z,97065.52
2022-10-17T06:22:16.119Z,97063.19
2022-10-17T06:24:44.122Z,97066.46
2022-10-17T06:27:13.069Z,97070.02
2022-10-17T06:29:42.266Z,97074.42
2022-10-17T06:32:14.126Z,97072.64
2022-10-17T06:34:46.957Z,97073.09
2022-10-17T06:37:15.929Z,97073.70
2022-10-17T06:39:44.623Z,97077.64
2022-10-17T06:42:19.347Z,97079.77
2022-10-17T06:44:50.654Z,97081.11
2022-10-17T06:47:38.841Z,97080.16
2022-10-17T06:50:19.456Z,97080.52
2022-10-17T06:52:58.858Z,97078.67
2022-10-17T06:55:51.213Z,97079.39
2022-10-17T06:58:31.660Z,97078.48
2022-10-17T07:01:25.132Z,97072.97
2022-10-17T07:03:56.641Z,97075.66
2022-10-17T07:06:24.855Z,97073.80
2022-10-17T07:08:55.829Z,97078.19
2022-10-17T07:11:24.035Z,97078.08
2022-10-17T07:13:53.023Z,97078.77
2022-10-17T07:16:22.821Z,97082.91
2022-10-17T07:19:02.012Z,97082.10
2022-10-17T07:21:38.154Z,97085.84
2022-10-17T07:24:08.509Z,97092.84
2022-10-17T07:26:36.818Z,97096.27
2022-10-17T07:29:06.630Z,97098.98
2022-10-17T07:31:39.247Z,97101.77
2022-10-17T07:34:07.449Z,97102.14
2022-10-17T07:36:35.532Z,97103.13
2022-10-17T07:39:05.810Z,97108.14
2022-10-17T07:41:34.237Z,97105.77
2022-10-17T07:44:02.210Z,97108.56
2022-10-17T07:46:35.097Z,97109.08
2022-10-17T07:51:06.170Z,97112.81
2022-10-17T07:53:38.012Z,97111.57
2022-10-17T07:56:09.114Z,97111.55
2022-10-17T07:58:37.273Z,97113.83
2022-10-17T08:01:09.410Z,97113.86
2022-10-17T08:03:39.050Z,97110.33
2022-10-17T08:06:06.099Z,97108.92
2022-10-17T08:08:32.966Z,97108.27
2022-10-17T08:11:05.845Z,97110.61
2022-10-17T08:13:33.396Z,97108.10
2022-10-17T08:16:06.967Z,97109.23
2022-10-17T08:18:35.266Z,97116.14
2022-10-17T08:21:06.223Z,97118.27
2022-10-17T08:23:33.058Z,97122.35
2022-10-17T08:26:00.964Z,97122.91
2022-10-17T08:28:28.593Z,97127.50
2022-10-17T08:31:11.080Z,97128.91
2022-10-17T08:33:38.033Z,97128.16
2022-10-17T08:36:06.554Z,97131.43
2022-10-17T08:38:35.536Z,97133.90
2022-10-17T08:41:13.134Z,97131.81
2022-10-17T08:43:46.145Z,97139.84
2022-10-17T08:48:46.304Z,97140.52
2022-10-17T08:51:28.254Z,97138.42
2022-10-17T08:54:08.007Z,97144.33
2022-10-17T08:56:48.472Z,97146.29
2022-10-17T08:59:28.834Z,97140.63
2022-10-17T09:01:58.334Z,97137.78
2022-10-17T09:04:38.832Z,97139.69
2022-10-17T09:07:32.293Z,97138.05
2022-10-17T09:10:41.201Z,97135.23
2022-10-17T09:13:18.079Z,97130.44
2022-10-17T09:15:54.042Z,97127.89
2022-10-17T09:18:43.636Z,97128.02
2022-10-17T09:21:20.500Z,97126.11
2022-10-17T09:24:08.824Z,97131.89
2022-10-17T09:26:39.175Z,97137.48
2022-10-17T09:29:25.276Z,97138.70
2022-10-17T09:32:04.197Z,97142.45
2022-10-17T09:34:32.474Z,97144.13
2022-10-17T09:37:01.167Z,97144.55
2022-10-17T09:39:31.429Z,97142.41
2022-10-17T09:42:02.843Z,97142.19
2022-10-17T09:44:34.095Z,97140.11
2022-10-17T09:47:21.966Z,97139.14
2022-10-17T09:49:50.100Z,97139.34
2022-10-17T09:52:18.375Z,97142.25
2022-10-17T09:54:48.718Z,97145.54
2022-10-17T09:57:17.703Z,97144.75
2022-10-17T09:59:58.197Z,97145.02
2022-10-17T10:02:27.221Z,97146.56
2022-10-17T10:05:05.098Z,97146.29
2022-10-17T10:07:38.407Z,97147.73
2022-10-17T10:10:22.119Z,97147.32
2022-10-17T10:13:03.746Z,97148.33
2022-10-17T10:15:38.126Z,97148.48
2022-10-17T10:18:24.771Z,97144.83
2022-10-17T10:21:11.237Z,97143.15
2022-10-17T10:23:41.146Z,97141.58
2022-10-17T10:26:26.866Z,97142.04
2022-10-17T10:28:59.871Z,97142.51
2022-10-17T10:31:30.823Z,97138.53
2022-10-17T10:34:00.909Z,97140.02
2022-10-17T10:36:46.991Z,97136.95
2022-10-17T10:39:51.710Z,97134.59
2022-10-17T10:42:23.992Z,97134.41
2022-10-17T10:44:52.784Z,97136.53
2022-10-17T10:47:23.195Z,97133.05
2022-10-17T10:49:53.218Z,97134.45
2022-10-17T10:52:34.958Z,97129.42
2022-10-17T10:55:25.846Z,97127.04
2022-10-17T10:58:02.914Z,97125.30
2022-10-17T11:00:34.034Z,97127.13
2022-10-17T11:03:17.689Z,97123.08
2022-10-17T11:06:03.273Z,97115.52
2022-10-17T11:09:15.079Z,97118.15
2022-10-17T11:11:47.527Z,97112.45
2022-10-17T11:14:24.192Z,97110.69
2022-10-17T11:16:59.147Z,97106.93
2022-10-17T11:19:43.910Z,97101.42
2022-10-17T11:22:28.305Z,97099.30
2022-10-17T11:24:59.256Z,97098.78
2022-10-17T11:27:28.961Z,97096.10
2022-10-17T11:29:57.006Z,97095.84
2022-10-17T11:32:32.023Z,97092.02
2022-10-17T11:35:25.412Z,97093.89
2022-10-17T11:38:03.007Z,97092.39
2022-10-17T11:40:41.717Z,97093.34
2022-10-17T11:43:41.444Z,97088.21
2022-10-17T11:46:40.271Z,97088.93
2022-10-17T11:49:19.192Z,97085.25
2022-10-17T11:52:44.469Z,97083.25
2022-10-17T11:55:25.046Z,97082.34
2022-10-17T11:58:17.152Z,97083.13
2022-10-17T12:00:56.036Z,97084.67
2022-10-17T12:03:42.252Z,97082.61
2022-10-17T12:06:16.454Z,97082.64
2022-10-17T12:08:46.284Z,97083.71
2022-10-17T12:11:19.643Z,97079.86
2022-10-17T12:13:49.110Z,97080.06
2022-10-17T12:16:19.271Z,97078.69
2022-10-17T12:19:02.092Z,97077.36
2022-10-17T12:21:54.637Z,97072.82
2022-10-17T12:24:42.887Z,97072.14
2022-10-17T12:27:28.881Z,97073.48
2022-10-17T12:30:05.563Z,97072.92
2022-10-17T12:32:46.971Z,97072.14
2022-10-17T12:35:22.332Z,97072.23
2022-10-17T12:37:48.945Z,97069.38
2022-10-17T12:40:35.835Z,97067.81
2022-10-17T12:43:15.118Z,97065.11
2022-10-17T12:45:51.973Z,97064.95
2022-10-17T12:48:34.382Z,97066.33
2022-10-17T12:51:30.711Z,97066.55
2022-10-17T12:53:54.172Z,97070.64
2022-10-17T12:56:45.995Z,97066.97
2022-10-17T12:59:24.820Z,97065.10
2022-10-17T13:01:57.113Z,97065.84
2022-10-17T13:04:25.370Z,97066.61
2022-10-17T13:06:55.936Z,97062.56
2022-10-17T13:09:32.078Z,97060.13
2022-10-17T13:12:02.594Z,97060.58
2022-10-17T13:14:31.908Z,97061.35
2022-10-17T13:17:04.551Z,97061.19
2022-10-17T13:19:44.121Z,97057.01
2022-10-17T13:22:23.460Z,97061.29
2022-10-17T13:24:52.357Z,97057.30
2022-10-17T13:27:27.720Z,97056.15
2022-10-17T13:29:56.454Z,97060.48
2022-10-17T13:32:25.481Z,97058.17
2022-10-17T13:35:11.373Z,97055.07
2022-10-17T13:37:41.199Z,97055.15
2022-10-17T13:40:40.930Z,97052.05
2022-10-17T13:43:05.482Z,97055.66
2022-10-17T13:45:36.419Z,97053.02
2022-10-17T13:48:07.621Z,97056.34
2022-10-17T13:50:44.606Z,97052.17
2022-10-17T13:53:24.316Z,97050.47
2022-10-17T13:56:28.476Z,97056.36
2022-10-17T13:59:07.651Z,97057.33
2022-10-17T14:01:36.651Z,97056.59
2022-10-17T14:04:09.518Z,97052.70
2022-10-17T14:06:47.576Z,97055.52
2022-10-17T14:09:24.020Z,97053.69
2022-10-17T14:12:13.011Z,97051.04
2022-10-17T14:15:08.708Z,97053.55
2022-10-17T14:17:33.043Z,97048.06
2022-10-17T14:23:17.597Z,97048.23
2022-10-17T14:25:40.630Z,97049.36
2022-10-17T14:28:09.036Z,97047.64
2022-10-17T14:30:57.223Z,97049.84
2022-10-17T14:33:29.022Z,97047.13
2022-10-17T14:35:59.650Z,97045.88
2022-10-17T14:38:28.340Z,97047.66
2022-10-17T14:41:23.599Z,97044.79
2022-10-17T14:44:02.749Z,97044.64
2022-10-17T14:46:30.143Z,97041.20
2022-10-17T14:49:07.009Z,97043.11
2022-10-17T14:51:44.715Z,97039.52
2022-10-17T14:54:29.240Z,97047.33
2022-10-17T14:56:55.872Z,97047.75
2022-10-17T14:59:52.750Z,97049.83
2022-10-17T15:02:12.777Z,97048.84
2022-10-17T15:04:40.005Z,97048.07
2022-10-17T15:07:06.599Z,97050.66
2022-10-17T15:09:33.487Z,97048.04
2022-10-17T15:12:02.436Z,97049.65
2022-10-17T15:14:29.232Z,97050.45
2022-10-17T15:16:55.808Z,97052.73
2022-10-17T15:19:22.512Z,97055.92
2022-10-17T15:21:49.246Z,97053.61
2022-10-17T15:24:15.905Z,97058.15
2022-10-17T15:26:42.862Z,97058.29
2022-10-17T15:29:15.446Z,97059.42
2022-10-17T15:31:42.155Z,97058.64
2022-10-17T15:34:08.897Z,97060.29
2022-10-17T15:36:41.320Z,97061.05
2022-10-17T15:39:09.753Z,97066.89
2022-10-17T15:41:36.912Z,97065.52
2022-10-17T15:44:03.668Z,97066.68
2022-10-17T15:46:33.563Z,97066.72
2022-10-17T15:49:07.045Z,97065.92
2022-10-17T15:51:34.023Z,97065.81
2022-10-17T15:54:01.104Z,97072.44
2022-10-17T15:56:30.062Z,97073.92
2022-10-17T15:58:57.622Z,97073.67
2022-10-17T16:01:27.667Z,97075.90
2022-10-17T16:03:55.506Z,97074.38
2022-10-17T16:06:22.924Z,97076.70
2022-10-17T16:08:50.327Z,97082.88
2022-10-17T16:11:37.358Z,97084.30
2022-10-17T16:14:09.529Z,97088.23
2022-10-17T16:16:36.358Z,97088.80
2022-10-17T16:19:04.580Z,97093.46
2022-10-17T16:21:35.447Z,97096.50
2022-10-17T16:24:03.852Z,97099.61
2022-10-17T16:26:31.109Z,97102.50
2022-10-17T16:29:02.206Z,97103.33
2022-10-17T16:31:32.733Z,97103.16
2022-10-17T16:34:01.943Z,97102.26
2022-10-17T16:36:29.029Z,97102.48
2022-10-17T16:38:55.873Z,97100.29
2022-10-17T16:41:25.279Z,97100.56
2022-10-17T16:43:53.882Z,97100.56
2022-10-17T16:46:22.245Z,97104.08
2022-10-17T16:48:49.534Z,97106.61
2022-10-17T16:51:18.404Z,97106.44
2022-10-17T16:53:46.570Z,97111.04
2022-10-17T16:56:17.418Z,97112.73
2022-10-17T16:58:44.972Z,97113.86
2022-10-17T17:01:14.697Z,97111.02
2022-10-17T17:03:43.722Z,97115.32
2022-10-17T17:06:16.765Z,97117.16
2022-10-17T17:08:43.541Z,97119.89
2022-10-17T17:11:13.240Z,97121.05
2022-10-17T17:13:40.865Z,97120.36
2022-10-17T17:16:09.631Z,97120.86
2022-10-17T17:18:37.233Z,97123.35
2022-10-17T17:21:07.354Z,97124.48
2022-10-17T17:23:36.994Z,97127.72
2022-10-17T17:26:06.987Z,97126.10
2022-10-17T17:28:34.648Z,97130.52
2022-10-17T17:31:05.284Z,97132.84
2022-10-17T17:33:33.351Z,97136.84
2022-10-17T17:36:01.752Z,97133.36
2022-10-17T17:38:30.829Z,97135.16
2022-10-17T17:40:57.818Z,97134.50
2022-10-17T17:43:24.826Z,97132.08
2022-10-17T17:45:52.083Z,97132.25
2022-10-17T17:48:19.845Z,97131.81
2022-10-17T17:50:46.677Z,97137.77
2022-10-17T17:53:15.610Z,97131.43
2022-10-17T17:55:42.157Z,97134.23
2022-10-17T17:58:09.172Z,97136.39
2022-10-17T18:00:35.931Z,97136.54
2022-10-17T18:03:03.071Z,97132.13
2022-10-17T18:05:30.804Z,97127.92
2022-10-17T18:07:58.195Z,97129.31
2022-10-17T18:10:24.768Z,97127.07
2022-10-17T18:12:51.774Z,97126.37
2022-10-17T18:15:18.470Z,97127.09
2022-10-17T18:17:45.258Z,97125.23
2022-10-17T18:20:11.870Z,97125.99
2022-10-17T18:22:38.537Z,97126.82
2022-10-17T18:25:06.302Z,97128.80
2022-10-17T18:27:33.049Z,97127.53
2022-10-17T18:29:59.889Z,97126.61
2022-10-17T18:32:30.394Z,97127.51
2022-10-17T18:34:57.981Z,97130.77
2022-10-17T18:37:24.688Z,97129.83
2022-10-17T18:39:53.523Z,97128.39
2022-10-17T18:42:20.359Z,97128.11
2022-10-17T18:44:47.535Z,97128.92
2022-10-17T18:47:14.463Z,97125.65
2022-10-17T18:49:42.357Z,97130.00
2022-10-17T18:52:09.104Z,97129.40
2022-10-17T18:54:35.680Z,97130.30
2022-10-17T18:57:02.654Z,97130.16
2022-10-17T18:59:29.347Z,97126.79
2022-10-17T19:01:56.041Z,97127.46
2022-10-17T19:04:22.984Z,97127.85
2022-10-17T19:06:49.834Z,97128.16
2022-10-17T19:09:16.877Z,97132.52
2022-10-17T19:11:43.826Z,97133.27
2022-10-17T19:14:12.720Z,97135.34
2022-10-17T19:16:50.384Z,97140.29
2022-10-17T19:19:23.004Z,97142.41
2022-10-17T19:21:49.949Z,97143.99
2022-10-17T19:24:20.799Z,97139.48
2022-10-17T19:26:55.273Z,97137.94
2022-10-17T19:29:25.238Z,97140.05
2022-10-17T19:31:52.423Z,97137.40
2022-10-17T19:34:19.348Z,97136.98
2022-10-17T19:36:46.675Z,97130.73
2022-10-17T19:39:17.924Z,97130.42
2022-10-17T19:41:46.419Z,97132.02
2022-10-17T19:44:14.173Z,97130.02
2022-10-17T19:46:43.816Z,97131.55
2022-10-17T19:49:11.244Z,97130.95
2022-10-17T19:51:38.500Z,97135.44
2022-10-17T19:54:05.444Z,97136.10
2022-10-17T19:56:37.174Z,97133.84
2022-10-17T19:59:07.979Z,97131.27
2022-10-17T20:01:38.321Z,97128.52
2022-10-17T20:04:06.019Z,97127.80
2022-10-17T20:06:33.826Z,97128.64
2022-10-17T20:09:00.746Z,97130.50
2022-10-17T20:11:28.340Z,97134.50
2022-10-17T20:13:56.071Z,97131.15
2022-10-17T20:16:25.310Z,97129.20
2022-10-17T20:18:54.704Z,97129.69
2022-10-17T20:21:31.970Z,97130.45
2022-10-17T20:23:59.526Z,97132.89
2022-10-17T20:26:42.857Z,97134.78
2022-10-17T20:29:27.930Z,97133.32
2022-10-17T20:31:54.667Z,97136.15
2022-10-17T20:34:21.514Z,97128.00
2022-10-17T20:36:49.283Z,97135.02
2022-10-17T20:39:18.786Z,97128.74
2022-10-17T20:41:46.498Z,97128.88
2022-10-17T20:44:13.753Z,97128.27
2022-10-17T20:46:45.156Z,97125.32
2022-10-17T20:49:18.047Z,97122.97
2022-10-17T20:51:45.121Z,97124.06
2022-10-17T20:54:12.348Z,97119.00
2022-10-17T20:56:39.255Z,97113.67
2022-10-17T20:59:11.772Z,97115.77
2022-10-17T21:01:38.762Z,97118.01
2022-10-17T21:04:33.303Z,97123.44
2022-10-17T21:06:52.968Z,97120.48
2022-10-17T21:09:20.552Z,97121.70
2022-10-17T21:11:48.045Z,97123.22
2022-10-17T21:14:16.196Z,97116.27
2022-10-17T21:16:43.630Z,97118.27
2022-10-17T21:19:12.042Z,97117.25
2022-10-17T21:21:41.745Z,97119.94
2022-10-17T21:24:16.877Z,97119.65
2022-10-17T21:26:45.779Z,97120.70
2022-10-17T21:29:13.436Z,97123.16
2022-10-17T21:31:42.707Z,97120.72
2022-10-17T21:34:12.413Z,97124.67
2022-10-17T21:36:39.802Z,97127.69
2022-10-17T21:41:34.654Z,97128.11
2022-10-17T21:44:04.513Z,97127.54
2022-10-17T21:46:32.512Z,97126.51
2022-10-17T21:49:00.477Z,97125.54
2022-10-17T21:51:27.999Z,97124.73
2022-10-17T21:53:57.072Z,97124.91
2022-10-17T21:56:30.058Z,97126.79
2022-10-17T21:58:58.729Z,97127.06
2022-10-17T22:01:31.615Z,97123.86
2022-10-17T22:04:01.081Z,97114.64
2022-10-17T22:06:40.608Z,97113.90
2022-10-17T22:09:23.033Z,97113.38
2022-10-17T22:11:55.026Z,97110.00
2022-10-17T22:14:24.016Z,97107.17
2022-10-17T22:16:51.375Z,97103.33
2022-10-17T22:19:21.340Z,97103.63
2022-10-17T22:21:49.115Z,97101.91
2022-10-17T22:24:19.128Z,97103.75
2022-10-17T22:26:46.019Z,97102.13
2022-10-17T22:29:13.682Z,97097.44
2022-10-17T22:31:41.041Z,97094.96
2022-10-17T22:34:11.169Z,97097.55
2022-10-17T22:36:37.914Z,97096.39
2022-10-17T22:39:04.831Z,97093.91
2022-10-17T22:41:31.614Z,97097.47
2022-10-17T22:43:58.641Z,97098.36
2022-10-17T22:46:25.849Z,97093.77
2022-10-17T22:48:52.667Z,97093.52
2022-10-17T22:51:19.733Z,97094.26
2022-10-17T22:53:46.405Z,97088.73
2022-10-17T22:56:16.968Z,97089.87
2022-10-17T22:58:43.953Z,97084.63
2022-10-17T23:01:18.725Z,97084.25
2022-10-17T23:03:45.993Z,97079.46
2022-10-17T23:06:13.244Z,97077.54
2022-10-17T23:08:40.706Z,97080.69
2022-10-17T23:11:08.609Z,97079.27
2022-10-17T23:13:36.033Z,97081.55
2022-10-17T23:16:03.244Z,97081.56
2022-10-17T23:20:57.905Z,97082.22
2022-10-17T23:23:24.749Z,97079.66
2022-10-17T23:25:52.412Z,97081.77
2022-10-17T23:28:19.087Z,97083.30
2022-10-17T23:30:45.888Z,97078.41
2022-10-17T23:33:13.788Z,97074.33
2022-10-17T23:35:41.421Z,97076.11
2022-10-17T23:38:09.336Z,97074.56
2022-10-17T23:40:36.338Z,97073.34
2022-10-17T23:43:04.412Z,97070.48
2022-10-17T23:45:36.130Z,97068.23
2022-10-17T23:48:05.166Z,97065.11
2022-10-17T23:50:31.924Z,97061.69
2022-10-17T23:52:58.553Z,97061.70
2022-10-17T23:55:25.399Z,97058.14
2022-10-17T23:57:52.647Z,97055.09
